Time;durP1;ratioP1;P1;durP2;ratioP2;P2;SDS_P1;SDS_P2;PMS_P1;PMS_P2;Temp;Humidity;BMP_temperature;BMP_pressure;BME280_temperature;BME280_humidity;BME280_pressure;Samples;Min_cycle;Max_cycle;Signal;HPM_P1;HPM_P2
2022/09/12 00:00:09;;;;;;;8.50;7.70;;;11.70;99.90;;;;;;4993502;28;20410;-73
2022/09/12 00:02:35;;;;;;;12.67;7.80;;;11.60;99.90;;;;;;4988037;28;20226;-72
2022/09/12 00:05:00;;;;;;;9.93;8.93;;;11.60;99.90;;;;;;4983769;28;20856;-70
2022/09/12 00:07:26;;;;;;;9.27;7.70;;;11.60;99.90;;;;;;4993674;28;20187;-72
2022/09/12 00:09:51;;;;;;;10.40;7.93;;;11.60;99.90;;;;;;4993419;28;20180;-72
2022/09/12 00:12:17;;;;;;;9.97;8.10;;;11.50;99.90;;;;;;4989545;28;20203;-71
2022/09/12 00:14:42;;;;;;;10.73;8.83;;;11.50;99.90;;;;;;4993453;28;20715;-72
2022/09/12 00:17:08;;;;;;;9.50;8.60;;;11.50;99.90;;;;;;4991596;28;20217;-72
2022/09/12 00:19:34;;;;;;;12.53;8.77;;;11.50;99.90;;;;;;4991654;28;20625;-72
2022/09/12 00:21:59;;;;;;;8.70;7.87;;;11.50;99.90;;;;;;4991573;28;20219;-72
2022/09/12 00:24:25;;;;;;;16.10;9.07;;;11.50;99.90;;;;;;4991319;28;20630;-71
2022/09/12 00:26:50;;;;;;;10.90;8.00;;;11.50;99.90;;;;;;4993231;28;20597;-72
2022/09/12 00:29:18;;;;;;;12.00;9.30;;;11.50;99.90;;;;;;4993106;28;20226;-71
2022/09/12 00:31:44;;;;;;;8.97;8.07;;;11.40;99.90;;;;;;4992999;28;20587;-71
2022/09/12 00:34:10;;;;;;;9.90;8.13;;;11.40;99.90;;;;;;4991200;28;20442;-71
2022/09/12 00:36:36;;;;;;;8.47;7.77;;;11.40;99.90;;;;;;4990928;28;20183;-72
2022/09/12 00:39:02;;;;;;;10.37;8.20;;;11.40;99.90;;;;;;4989765;28;20446;-73
2022/09/12 00:41:32;;;;;;;10.17;9.17;;;11.40;99.90;;;;;;4993362;28;20730;-71
2022/09/12 00:44:00;;;;;;;10.50;8.00;;;11.40;99.90;;;;;;4991003;28;20442;-71
2022/09/12 00:46:35;;;;;;;10.73;9.60;;;11.30;99.90;;;;;;4993052;28;20454;-71
2022/09/12 00:49:35;;;;;;;15.73;8.77;;;11.30;99.90;;;;;;4990705;28;20460;-71
2022/09/12 00:52:11;;;;;;;9.50;8.60;;;11.30;99.90;;;;;;4985736;28;20549;-71
2022/09/12 00:54:50;;;;;;;9.90;8.90;;;11.30;99.90;;;;;;4990977;28;20442;-71
2022/09/12 00:57:16;;;;;;;12.00;8.83;;;11.20;99.90;;;;;;4993138;28;20410;-71
2022/09/12 00:59:57;;;;;;;9.70;8.33;;;11.20;99.90;;;;;;4990439;28;20450;-71
2022/09/12 02:31:48;;;;;;;10.10;8.80;;;10.60;99.90;;;;;;5664373;22;20488;-72
2022/09/12 02:34:45;;;;;;;9.50;8.53;;;10.60;99.90;;;;;;5004855;28;20426;-72
2022/09/12 02:37:24;;;;;;;12.30;9.97;;;10.50;99.90;;;;;;4995660;28;20402;-72
2022/09/12 02:39:54;;;;;;;13.90;8.93;;;10.60;99.90;;;;;;4995515;28;20549;-72
2022/09/12 02:42:21;;;;;;;10.33;9.23;;;10.50;99.90;;;;;;4999411;28;20993;-72
2022/09/12 02:44:47;;;;;;;12.77;9.50;;;10.50;99.90;;;;;;5014919;28;20472;-72
2022/09/12 02:47:23;;;;;;;11.13;9.63;;;10.50;99.90;;;;;;5014304;28;20775;-72
2022/09/12 02:49:50;;;;;;;10.20;9.00;;;10.40;99.90;;;;;;5012485;28;20441;-73
2022/09/12 02:52:16;;;;;;;13.93;9.23;;;10.50;99.90;;;;;;5014553;28;20523;-73
2022/09/12 02:54:42;;;;;;;13.93;8.47;;;10.50;99.90;;;;;;5014817;28;20471;-72
2022/09/12 02:57:19;;;;;;;19.00;9.33;;;10.40;99.90;;;;;;5014835;28;20448;-72
2022/09/12 02:59:45;;;;;;;13.77;9.63;;;10.40;99.90;;;;;;5003155;28;20519;-73
2022/09/12 03:02:35;;;;;;;34.57;11.10;;;10.40;99.90;;;;;;5014304;28;20975;-72
2022/09/12 03:05:28;;;;;;;13.93;8.80;;;10.40;99.90;;;;;;5011668;28;20488;-72
2022/09/12 03:08:23;;;;;;;11.10;8.97;;;10.30;99.90;;;;;;5013932;28;20414;-71
2022/09/12 03:11:05;;;;;;;11.23;8.30;;;10.30;99.90;;;;;;5011911;28;20425;-72
2022/09/12 03:13:49;;;;;;;14.57;9.23;;;10.20;99.90;;;;;;5004353;28;20853;-73
2022/09/12 03:16:42;;;;;;;15.50;9.40;;;10.20;99.90;;;;;;4994877;28;20418;-73
2022/09/12 03:19:28;;;;;;;10.63;8.53;;;10.20;99.90;;;;;;4979092;28;20445;-73
2022/09/12 03:22:12;;;;;;;10.93;9.07;;;10.30;99.90;;;;;;4994647;28;20430;-73
2022/09/12 03:24:53;;;;;;;10.50;9.40;;;10.30;99.90;;;;;;4994496;28;20943;-73
2022/09/12 03:27:30;;;;;;;10.20;8.80;;;10.20;99.90;;;;;;4995926;28;20438;-73
2022/09/12 03:29:56;;;;;;;16.37;9.20;;;10.20;99.90;;;;;;5007353;28;20440;-73
2022/09/12 03:32:48;;;;;;;10.13;9.10;;;10.20;99.90;;;;;;5013910;28;20449;-73
2022/09/12 03:35:16;;;;;;;14.77;9.57;;;10.20;99.90;;;;;;5006021;28;20436;-73
2022/09/12 03:37:41;;;;;;;15.60;9.23;;;10.20;99.90;;;;;;5014164;28;20505;-73
2022/09/12 03:40:09;;;;;;;14.37;8.57;;;10.10;99.90;;;;;;5013517;28;20492;-73
2022/09/12 03:42:34;;;;;;;13.23;9.37;;;10.10;99.90;;;;;;5012854;28;20210;-73
2022/09/12 03:45:00;;;;;;;11.27;9.60;;;10.10;99.90;;;;;;5009424;28;20862;-73
2022/09/12 03:47:25;;;;;;;12.77;8.93;;;10.10;99.90;;;;;;5013952;28;20178;-73
2022/09/12 03:49:54;;;;;;;13.33;9.13;;;10.10;99.90;;;;;;5009376;28;20198;-73
2022/09/12 03:52:19;;;;;;;10.77;9.67;;;10.10;99.90;;;;;;5012621;28;20321;-73
2022/09/12 03:54:45;;;;;;;11.03;9.90;;;10.10;99.90;;;;;;5013731;28;20875;-72
2022/09/12 03:57:10;;;;;;;14.93;9.33;;;10.00;99.90;;;;;;5012180;28;20268;-73
2022/09/12 03:59:36;;;;;;;11.10;8.60;;;10.00;99.90;;;;;;5010142;28;20239;-72
2022/09/12 04:02:03;;;;;;;11.97;10.63;;;10.00;99.90;;;;;;5010044;28;20234;-72
2022/09/12 04:04:29;;;;;;;11.63;10.30;;;10.00;99.90;;;;;;5010125;28;20451;-72
2022/09/12 04:06:54;;;;;;;16.50;10.93;;;9.90;99.90;;;;;;5013389;28;20768;-73
2022/09/12 04:09:20;;;;;;;11.90;10.00;;;9.90;99.90;;;;;;5013281;28;20210;-72
2022/09/12 04:11:45;;;;;;;15.30;10.33;;;9.90;99.90;;;;;;5010964;28;20337;-72
2022/09/12 04:14:11;;;;;;;11.17;9.30;;;9.90;99.90;;;;;;5011101;28;20186;-72
2022/09/12 04:16:36;;;;;;;16.00;10.10;;;9.90;99.90;;;;;;5011471;28;20569;-73
2022/09/12 04:19:02;;;;;;;14.70;9.30;;;9.90;99.90;;;;;;5012000;28;20186;-75
2022/09/12 04:21:28;;;;;;;11.33;9.50;;;9.90;99.90;;;;;;5010092;28;20574;-73
2022/09/12 04:23:54;;;;;;;11.93;10.50;;;9.90;99.90;;;;;;5011385;28;20448;-73
2022/09/12 04:26:19;;;;;;;17.67;10.23;;;9.90;99.90;;;;;;5013089;28;20203;-72
2022/09/12 04:28:46;;;;;;;13.50;10.03;;;9.90;99.90;;;;;;5013031;28;20256;-73
2022/09/12 04:31:16;;;;;;;11.90;10.63;;;9.80;99.90;;;;;;5012550;28;20209;-73
2022/09/12 04:33:42;;;;;;;13.23;9.53;;;9.80;99.90;;;;;;5009113;28;21019;-73
2022/09/12 04:36:13;;;;;;;14.83;10.50;;;9.80;99.90;;;;;;5007794;28;20456;-73
2022/09/12 04:38:38;;;;;;;12.87;10.13;;;9.80;99.90;;;;;;5009401;28;20447;-73
2022/09/12 04:41:25;;;;;;;19.43;9.50;;;9.80;99.90;;;;;;5012461;28;20460;-71
2022/09/12 04:43:53;;;;;;;16.10;11.00;;;9.80;99.90;;;;;;5008015;28;20587;-72
2022/09/12 04:46:19;;;;;;;13.80;11.03;;;9.80;99.90;;;;;;5012527;28;20461;-72
2022/09/12 04:48:46;;;;;;;12.47;9.57;;;9.80;99.90;;;;;;5012481;28;20414;-71
2022/09/12 04:51:15;;;;;;;13.67;10.33;;;9.80;99.90;;;;;;5010087;28;20482;-71
2022/09/12 04:53:42;;;;;;;14.60;9.43;;;9.80;99.90;;;;;;5008715;28;20469;-71
2022/09/12 04:56:10;;;;;;;14.17;9.87;;;9.80;99.90;;;;;;5011987;28;20475;-73
2022/09/12 04:58:36;;;;;;;10.77;9.67;;;9.80;99.90;;;;;;5009272;28;20472;-73
2022/09/12 05:01:10;;;;;;;11.70;8.77;;;9.80;99.90;;;;;;5012214;28;20467;-73
2022/09/12 05:03:39;;;;;;;13.00;10.80;;;9.80;99.90;;;;;;5012556;28;20252;-73
2022/09/12 05:06:07;;;;;;;12.20;9.80;;;9.80;99.90;;;;;;5006409;28;20472;-73
2022/09/12 05:08:36;;;;;;;10.47;8.80;;;9.80;99.90;;;;;;5009091;28;20437;-73
2022/09/12 05:11:04;;;;;;;11.63;8.80;;;9.80;99.90;;;;;;5012365;28;20571;-73
2022/09/12 05:13:31;;;;;;;11.90;9.97;;;9.80;99.90;;;;;;5009406;28;20437;-72
2022/09/12 05:15:58;;;;;;;11.90;9.33;;;9.90;99.90;;;;;;5008852;28;20810;-73
2022/09/12 05:18:25;;;;;;;11.20;9.53;;;9.90;99.90;;;;;;5012144;28;20421;-72
2022/09/12 05:20:51;;;;;;;13.23;9.30;;;10.00;99.90;;;;;;5009508;28;20438;-73
2022/09/12 05:23:16;;;;;;;12.77;9.80;;;10.00;99.90;;;;;;5012122;28;20418;-73
2022/09/12 05:25:53;;;;;;;13.17;10.20;;;10.00;99.90;;;;;;5004364;28;20471;-73
2022/09/12 05:28:19;;;;;;;10.57;9.40;;;10.10;99.90;;;;;;5012109;28;20382;-72
2022/09/12 05:30:45;;;;;;;12.23;9.20;;;10.20;99.90;;;;;;5007710;28;20436;-73
2022/09/12 05:33:11;;;;;;;15.17;10.23;;;10.20;99.90;;;;;;5007884;28;20476;-73
2022/09/12 05:35:37;;;;;;;11.80;9.40;;;10.30;99.90;;;;;;5006652;28;20456;-74
2022/09/12 05:38:03;;;;;;;18.03;9.97;;;10.40;99.90;;;;;;5011764;28;20425;-72
2022/09/12 05:40:29;;;;;;;12.30;10.27;;;10.40;99.90;;;;;;5001383;28;20249;-73
2022/09/12 05:42:55;;;;;;;11.07;9.97;;;10.50;99.90;;;;;;4992146;28;20521;-73
2022/09/12 05:45:20;;;;;;;13.77;8.93;;;10.60;99.90;;;;;;4997917;28;20332;-73
2022/09/12 05:47:46;;;;;;;14.63;10.40;;;10.70;99.90;;;;;;5010617;28;20181;-73
2022/09/12 05:50:12;;;;;;;14.77;9.20;;;10.80;99.90;;;;;;5008922;28;20249;-73
2022/09/12 05:52:37;;;;;;;10.33;9.33;;;10.90;99.90;;;;;;5011688;28;20222;-73
2022/09/12 05:55:04;;;;;;;12.43;9.70;;;11.00;99.90;;;;;;5010304;28;20182;-72
2022/09/12 05:57:29;;;;;;;10.83;8.97;;;11.20;99.90;;;;;;5008441;28;20192;-73
2022/09/12 05:59:55;;;;;;;11.63;10.37;;;11.40;99.90;;;;;;5011339;28;20413;-73
2022/09/12 06:02:20;;;;;;;11.83;10.63;;;11.80;99.90;;;;;;5010341;28;20214;-74
2022/09/12 06:04:46;;;;;;;11.13;8.53;;;12.70;99.90;;;;;;5009002;28;20218;-73
2022/09/12 06:07:12;;;;;;;10.10;7.73;;;14.70;99.90;;;;;;5008194;28;20659;-73
2022/09/12 06:09:37;;;;;;;11.60;7.13;;;16.80;99.90;;;;;;5011443;28;20596;-72
2022/09/12 06:12:03;;;;;;;7.77;6.93;;;18.60;99.90;;;;;;5008024;28;20461;-71
2022/09/12 06:14:29;;;;;;;8.50;7.53;;;19.80;99.90;;;;;;5011720;28;20182;-71
2022/09/12 06:16:54;;;;;;;10.07;7.80;;;21.20;99.90;;;;;;5011609;28;20179;-71
2022/09/12 06:19:22;;;;;;;9.87;8.10;;;22.20;99.90;;;;;;5009226;28;20261;-72
2022/09/12 06:21:48;;;;;;;15.73;8.87;;;23.50;99.90;;;;;;5004025;28;20260;-72
2022/09/12 06:24:15;;;;;;;8.50;7.60;;;23.90;99.90;;;;;;5011358;28;20410;-72
2022/09/12 06:26:42;;;;;;;9.60;8.03;;;24.80;99.90;;;;;;5007900;28;20462;-72
2022/09/12 06:29:10;;;;;;;11.40;7.57;;;24.60;99.90;;;;;;5011146;28;20424;-72
2022/09/12 06:31:37;;;;;;;14.70;8.47;;;24.90;99.90;;;;;;5010078;28;20468;-72
2022/09/12 06:34:05;;;;;;;13.13;7.97;;;25.70;99.90;;;;;;4998415;28;20446;-72
2022/09/12 06:36:33;;;;;;;11.60;7.97;;;25.70;99.90;;;;;;5011284;28;20424;-71
2022/09/12 06:39:02;;;;;;;10.30;8.40;;;26.60;99.90;;;;;;5007800;28;20579;-71
2022/09/12 06:41:28;;;;;;;9.83;8.93;;;25.70;99.90;;;;;;5013582;28;20497;-72
2022/09/12 06:43:55;;;;;;;13.77;9.40;;;26.40;99.90;;;;;;5014976;28;20406;-72
2022/09/12 06:46:21;;;;;;;11.50;9.10;;;25.80;99.90;;;;;;5013528;28;20457;-72
2022/09/12 06:48:47;;;;;;;10.83;9.80;;;26.00;99.90;;;;;;5011624;28;20863;-72
2022/09/12 06:51:15;;;;;;;11.33;10.13;;;25.70;99.90;;;;;;5012170;28;20233;-72
2022/09/12 06:53:42;;;;;;;9.93;9.03;;;25.40;99.90;;;;;;5011594;28;20189;-72
2022/09/12 06:56:19;;;;;;;10.50;9.20;;;25.30;99.90;;;;;;5014591;28;20413;-72
2022/09/12 06:58:45;;;;;;;11.97;10.23;;;24.70;99.90;;;;;;5014541;28;20409;-72
2022/09/12 07:01:16;;;;;;;10.00;9.03;;;24.40;99.90;;;;;;5013265;28;20435;-71
2022/09/12 07:03:46;;;;;;;14.60;10.03;;;23.90;99.90;;;;;;5003249;28;20437;-71
2022/09/12 07:06:13;;;;;;;17.23;9.17;;;23.30;99.90;;;;;;5008176;28;20468;-71
2022/09/12 07:08:39;;;;;;;12.17;10.67;;;23.00;99.90;;;;;;5012392;28;20437;-72
2022/09/12 07:11:14;;;;;;;11.50;9.17;;;22.90;99.90;;;;;;5014283;28;20440;-72
2022/09/12 07:13:42;;;;;;;14.63;9.93;;;22.90;99.90;;;;;;5014604;28;20409;-72
2022/09/12 07:16:09;;;;;;;11.17;9.63;;;22.60;99.90;;;;;;5013139;28;20426;-71
2022/09/12 07:18:39;;;;;;;10.70;9.60;;;22.80;99.90;;;;;;5010046;28;20808;-72
2022/09/12 07:21:09;;;;;;;11.87;8.70;;;22.70;99.90;;;;;;5004287;28;20518;-72
2022/09/12 07:23:34;;;;;;;12.90;10.57;;;22.50;99.90;;;;;;5014398;28;20513;-72
2022/09/12 07:26:00;;;;;;;10.90;8.40;;;22.60;99.90;;;;;;5010942;28;20544;-72
2022/09/12 07:28:28;;;;;;;10.57;9.47;;;22.80;99.90;;;;;;5014299;28;20213;-71
2022/09/12 07:30:54;;;;;;;12.80;9.77;;;22.70;99.90;;;;;;5012664;28;20433;-72
2022/09/12 07:33:21;;;;;;;11.93;8.30;;;22.70;99.90;;;;;;5006729;28;20452;-72
2022/09/12 07:35:47;;;;;;;10.30;8.30;;;23.00;99.90;;;;;;5009878;28;20890;-72
2022/09/12 07:38:12;;;;;;;9.50;8.47;;;23.20;99.90;;;;;;5014265;28;20460;-71
2022/09/12 07:40:38;;;;;;;8.40;7.60;;;23.30;99.90;;;;;;5014134;28;20261;-72
2022/09/12 07:43:03;;;;;;;7.50;6.80;;;23.60;99.90;;;;;;5014068;28;20193;-71
2022/09/12 07:45:29;;;;;;;7.00;6.30;;;23.60;99.90;;;;;;5014033;28;20262;-72
2022/09/12 07:47:55;;;;;;;7.00;6.40;;;23.90;99.90;;;;;;5010264;28;20189;-72
2022/09/12 07:50:21;;;;;;;7.37;6.70;;;24.10;99.90;;;;;;5011728;28;20802;-72
2022/09/12 07:52:46;;;;;;;7.47;6.33;;;24.00;99.90;;;;;;5013163;28;20202;-71
2022/09/12 07:55:12;;;;;;;7.70;7.00;;;23.80;99.90;;;;;;5012451;28;20264;-71
2022/09/12 07:57:37;;;;;;;6.20;5.67;;;24.30;99.90;;;;;;5011754;28;20199;-72
2022/09/12 08:00:04;;;;;;;8.37;6.60;;;24.60;99.90;;;;;;5012162;28;20241;-72
2022/09/12 08:02:30;;;;;;;8.50;7.70;;;24.70;99.90;;;;;;5013684;28;20213;-71
2022/09/12 08:04:55;;;;;;;8.30;7.50;;;24.90;99.90;;;;;;5009739;28;20553;-72
2022/09/12 08:07:21;;;;;;;12.10;8.13;;;25.20;99.90;;;;;;4993757;28;20194;-72
2022/09/12 08:09:47;;;;;;;8.90;8.07;;;25.00;99.90;;;;;;4994088;28;20590;-72
2022/09/12 08:12:13;;;;;;;12.40;8.17;;;24.80;99.90;;;;;;4993756;28;20295;-71
2022/09/12 08:14:39;;;;;;;10.50;8.27;;;24.90;99.90;;;;;;4993970;28;20172;-71
2022/09/12 08:17:05;;;;;;;15.20;8.87;;;25.10;99.90;;;;;;5003350;28;20433;-72
2022/09/12 08:19:31;;;;;;;10.03;8.30;;;24.90;99.90;;;;;;5011452;28;20171;-71
2022/09/12 08:21:56;;;;;;;8.03;7.30;;;25.10;99.90;;;;;;5010680;28;20457;-72
2022/09/12 08:24:22;;;;;;;11.17;8.27;;;25.70;99.90;;;;;;5013054;28;20186;-72
2022/09/12 08:26:47;;;;;;;8.53;7.53;;;25.70;99.90;;;;;;5011069;28;20201;-72
2022/09/12 08:29:13;;;;;;;9.23;7.70;;;25.30;99.90;;;;;;5011072;28;20191;-72
2022/09/12 08:31:40;;;;;;;9.27;6.67;;;25.60;99.90;;;;;;5009960;28;20210;-71
2022/09/12 08:34:05;;;;;;;10.13;6.07;;;25.90;99.90;;;;;;5003607;28;20187;-72
2022/09/12 08:36:32;;;;;;;8.70;7.77;;;26.30;99.90;;;;;;5001031;28;20549;-72
2022/09/12 08:39:01;;;;;;;8.60;7.50;;;26.00;99.90;;;;;;5010895;28;20537;-72
2022/09/12 08:41:45;;;;;;;8.13;6.57;;;25.70;99.90;;;;;;5011621;28;20442;-72
2022/09/12 08:44:35;;;;;;;7.13;6.33;;;25.90;99.90;;;;;;5010820;28;20448;-72
2022/09/12 08:47:40;;;;;;;9.50;6.30;;;26.40;99.90;;;;;;5012695;28;20422;-71
2022/09/12 08:50:13;;;;;;;8.13;5.90;;;26.50;99.90;;;;;;5006022;28;20528;-72
2022/09/12 08:53:12;;;;;;;6.40;5.90;;;26.40;99.90;;;;;;5013059;28;20473;-71
2022/09/12 08:55:52;;;;;;;8.83;6.07;;;26.60;99.90;;;;;;5012370;28;20517;-72
2022/09/12 08:58:21;;;;;;;12.73;5.50;;;26.50;99.90;;;;;;5011378;28;20938;-72
2022/09/12 09:01:17;;;;;;;6.30;5.10;;;26.70;99.90;;;;;;5010269;28;20846;-73
2022/09/12 09:04:00;;;;;;;5.90;5.40;;;27.00;99.90;;;;;;5011023;28;20513;-72
2022/09/12 09:06:31;;;;;;;8.97;4.97;;;27.10;99.90;;;;;;4997165;28;20466;-72
2022/09/12 09:09:18;;;;;;;5.53;4.37;;;27.70;99.90;;;;;;4992666;28;20419;-71
2022/09/12 09:12:12;;;;;;;4.87;4.37;;;27.60;99.90;;;;;;4992953;28;20422;-72
2022/09/12 09:15:02;;;;;;;6.10;3.77;;;27.40;99.90;;;;;;5009791;28;20444;-72
2022/09/12 09:17:40;;;;;;;4.73;4.33;;;27.60;99.90;;;;;;5012050;28;20453;-72
2022/09/12 09:20:27;;;;;;;8.10;4.13;;;27.90;99.90;;;;;;5005527;28;20464;-72
2022/09/12 09:23:02;;;;;;;3.73;3.53;;;27.90;99.90;;;;;;5012506;28;20436;-72
2022/09/12 09:25:41;;;;;;;6.20;3.83;;;28.10;99.90;;;;;;5012198;28;20452;-72
2022/09/12 09:28:16;;;;;;;2.93;2.83;;;28.30;99.90;;;;;;5010971;28;20791;-72
2022/09/12 09:30:43;;;;;;;5.97;3.60;;;28.20;99.90;;;;;;5006319;28;20498;-72
2022/09/12 09:33:19;;;;;;;3.70;3.27;;;28.50;99.90;;;;;;5010328;28;20448;-72
2022/09/12 09:35:47;;;;;;;4.47;2.93;;;28.50;99.90;;;;;;5008899;28;20436;-73
2022/09/12 09:38:23;;;;;;;3.73;2.93;;;28.80;99.90;;;;;;5012095;28;20504;-73
2022/09/12 09:41:17;;;;;;;3.80;3.60;;;28.80;99.90;;;;;;5011904;28;20409;-73
2022/09/12 09:43:43;;;;;;;3.73;2.93;;;29.20;99.90;;;;;;5005534;28;20501;-73
2022/09/12 09:46:10;;;;;;;4.53;3.50;;;29.30;99.90;;;;;;4992270;28;21009;-72
2022/09/12 09:48:40;;;;;;;3.23;2.97;;;29.20;99.90;;;;;;4992397;28;20422;-72
2022/09/12 09:51:08;;;;;;;3.53;2.77;;;29.00;99.90;;;;;;5003131;28;20457;-73
2022/09/12 09:53:42;;;;;;;2.40;2.20;;;29.20;99.90;;;;;;5010863;28;20414;-73
2022/09/12 09:56:14;;;;;;;5.00;2.67;;;29.20;99.90;;;;;;5011767;28;20432;-73
2022/09/12 09:58:40;;;;;;;3.00;2.50;;;28.90;99.90;;;;;;5001013;28;20453;-73
2022/09/12 10:01:14;;;;;;;2.63;2.43;;;29.00;99.90;;;;;;5010255;28;20482;-73
2022/09/12 10:03:46;;;;;;;4.03;2.27;;;29.50;99.90;;;;;;5012144;28;20201;-72
2022/09/12 10:06:33;;;;;;;2.77;2.57;;;29.40;99.90;;;;;;5008901;28;20461;-72
2022/09/12 10:09:13;;;;;;;3.30;3.10;;;29.10;99.90;;;;;;5011809;28;20410;-73
2022/09/12 10:11:39;;;;;;;4.10;2.00;;;29.00;99.90;;;;;;5009879;28;20969;-72
2022/09/12 10:14:28;;;;;;;4.10;2.57;;;29.00;99.90;;;;;;5009344;28;20877;-73
2022/09/12 10:16:53;;;;;;;2.83;2.60;;;29.30;99.90;;;;;;5014354;28;20437;-73
2022/09/12 10:19:34;;;;;;;4.17;2.20;;;29.40;99.90;;;;;;5016082;28;20425;-73
2022/09/12 10:22:01;;;;;;;2.27;1.90;;;29.40;99.90;;;;;;5010435;28;20202;-73
2022/09/12 10:24:33;;;;;;;2.03;1.93;;;29.20;99.90;;;;;;5015531;28;20830;-73
2022/09/12 10:27:17;;;;;;;3.97;2.63;;;29.60;99.90;;;;;;5015476;28;20761;-73
2022/09/12 10:29:50;;;;;;;2.00;1.90;;;30.30;99.90;;;;;;5015648;28;20442;-72
2022/09/12 10:32:38;;;;;;;5.17;2.00;;;30.00;99.90;;;;;;5015051;28;20495;-73
2022/09/12 10:35:22;;;;;;;2.50;2.30;;;30.10;99.90;;;;;;5009793;28;20441;-73
2022/09/12 10:38:02;;;;;;;1.70;1.60;;;29.80;99.90;;;;;;5011500;28;20451;-73
2022/09/12 10:40:37;;;;;;;2.33;2.13;;;29.80;99.80;;;;;;5015231;28;20413;-73
2022/09/12 10:43:26;;;;;;;2.73;2.63;;;30.00;99.90;;;;;;5013715;28;20523;-72
2022/09/12 10:45:57;;;;;;;2.70;2.50;;;29.40;98.90;;;;;;5015208;28;20457;-73
2022/09/12 10:48:30;;;;;;;2.03;1.93;;;29.60;99.30;;;;;;5013188;28;20479;-73
2022/09/12 10:51:00;;;;;;;2.13;2.00;;;29.20;99.90;;;;;;5008343;28;20453;-73
2022/09/12 10:53:39;;;;;;;1.77;1.63;;;29.10;98.40;;;;;;5006438;28;20438;-73
2022/09/12 10:56:21;;;;;;;1.93;1.83;;;29.10;97.90;;;;;;4995189;28;20931;-73
2022/09/12 10:58:58;;;;;;;2.10;1.97;;;29.20;98.70;;;;;;5003062;28;20487;-73
2022/09/12 11:01:35;;;;;;;3.37;1.97;;;29.60;98.40;;;;;;4995106;28;20422;-73
2022/09/12 11:04:23;;;;;;;2.07;1.97;;;29.30;96.80;;;;;;4995191;28;20765;-73
2022/09/12 11:06:57;;;;;;;3.23;2.23;;;29.50;97.10;;;;;;5012414;28;20465;-73
2022/09/12 11:09:38;;;;;;;1.90;1.80;;;29.60;96.70;;;;;;5010958;28;20956;-73
2022/09/12 11:12:07;;;;;;;4.30;1.67;;;29.50;96.20;;;;;;4994945;28;20508;-73
2022/09/12 11:15:05;;;;;;;1.63;1.53;;;29.30;96.30;;;;;;5004107;28;20836;-73
2022/09/12 11:17:50;;;;;;;2.73;2.63;;;29.00;95.60;;;;;;5014895;28;20416;-73
2022/09/12 11:20:44;;;;;;;1.70;1.60;;;29.10;97.20;;;;;;5011648;28;20509;-73
2022/09/12 11:23:16;;;;;;;1.80;1.70;;;29.00;95.20;;;;;;5012024;28;20417;-74
2022/09/12 11:26:03;;;;;;;2.07;1.53;;;29.10;96.30;;;;;;5011987;28;20491;-73
2022/09/12 11:28:55;;;;;;;1.50;1.40;;;29.40;96.00;;;;;;5013291;28;20418;-73
2022/09/12 11:31:29;;;;;;;4.57;4.13;;;29.10;95.10;;;;;;5009924;28;20491;-73
2022/09/12 11:33:58;;;;;;;1.60;1.50;;;29.30;96.10;;;;;;5012790;28;20441;-73
2022/09/12 11:36:32;;;;;;;1.43;1.33;;;29.40;96.90;;;;;;5007674;28;20445;-73
2022/09/12 11:39:16;;;;;;;2.73;1.70;;;29.40;95.20;;;;;;5013958;28;20417;-72
2022/09/12 11:41:49;;;;;;;2.33;1.20;;;29.50;94.10;;;;;;5010835;28;20457;-73
2022/09/12 11:44:23;;;;;;;1.70;1.60;;;28.80;94.00;;;;;;5014091;28;20409;-72
2022/09/12 11:46:49;;;;;;;1.73;1.63;;;28.30;94.20;;;;;;5011625;28;20828;-73
2022/09/12 11:49:35;;;;;;;1.97;1.17;;;28.00;94.20;;;;;;5013674;28;20425;-72
2022/09/12 11:52:09;;;;;;;1.43;1.33;;;27.60;94.10;;;;;;5009633;28;20488;-73
2022/09/12 11:54:41;;;;;;;1.27;1.27;;;27.30;94.50;;;;;;5013839;28;20433;-73
2022/09/12 11:57:21;;;;;;;1.70;1.60;;;27.50;94.90;;;;;;5012458;28;20941;-73
2022/09/12 11:59:58;;;;;;;1.37;1.00;;;27.40;95.30;;;;;;5013779;28;20418;-73
2022/09/12 12:02:29;;;;;;;1.40;1.30;;;27.20;94.30;;;;;;5012277;28;20465;-73
2022/09/12 12:05:14;;;;;;;1.50;1.40;;;27.20;94.70;;;;;;5010962;28;20553;-73
2022/09/12 12:07:41;;;;;;;1.00;1.00;;;27.40;95.80;;;;;;5010525;28;20491;-73
2022/09/12 12:10:23;;;;;;;1.23;1.13;;;27.30;94.20;;;;;;5013153;28;20760;-73
2022/09/12 12:12:50;;;;;;;2.77;1.40;;;27.10;94.90;;;;;;5010202;28;20449;-73
2022/09/12 12:15:17;;;;;;;12.57;1.40;;;27.30;95.60;;;;;;5013281;28;20855;-73
2022/09/12 12:17:43;;;;;;;1.30;1.00;;;27.60;93.90;;;;;;5010419;28;20433;-73
2022/09/12 12:20:16;;;;;;;0.87;0.87;;;27.60;93.70;;;;;;5010681;28;20946;-73
2022/09/12 12:22:52;;;;;;;0.87;0.87;;;27.30;93.40;;;;;;5011234;28;20457;-73
2022/09/12 12:25:18;;;;;;;0.87;0.87;;;27.00;93.20;;;;;;5012969;28;20852;-73
2022/09/12 12:27:43;;;;;;;1.17;1.07;;;26.90;93.70;;;;;;5013196;28;20459;-73
2022/09/12 12:30:27;;;;;;;1.07;0.70;;;26.80;94.90;;;;;;5012767;28;20183;-73
2022/09/12 12:32:58;;;;;;;0.90;0.90;;;26.70;93.00;;;;;;5007647;28;20292;-73
2022/09/12 12:36:00;;;;;;;0.90;0.90;;;26.60;92.70;;;;;;5002111;28;20430;-73
2022/09/12 12:38:30;;;;;;;1.00;0.90;;;26.60;92.90;;;;;;5009170;28;20463;-73
2022/09/12 12:41:17;;;;;;;1.03;0.70;;;26.50;93.60;;;;;;5012955;28;20433;-73
2022/09/12 12:43:47;;;;;;;1.13;1.00;;;26.20;92.30;;;;;;5012878;28;20426;-74
2022/09/12 12:46:14;;;;;;;1.07;0.70;;;26.10;92.70;;;;;;5012017;28;20465;-74
2022/09/12 12:49:15;;;;;;;2.97;0.90;;;26.10;92.70;;;;;;5007528;28;20969;-74
2022/09/12 12:51:44;;;;;;;0.70;0.70;;;26.20;93.90;;;;;;5010081;28;20985;-74
2022/09/12 12:54:30;;;;;;;1.37;1.20;;;26.20;94.30;;;;;;5010257;28;20437;-73
2022/09/12 12:57:22;;;;;;;0.90;0.90;;;26.10;93.80;;;;;;5012522;28;20417;-74
2022/09/12 13:00:08;;;;;;;1.77;0.87;;;26.00;94.00;;;;;;5012341;28;20425;-74
2022/09/12 13:02:40;;;;;;;1.20;1.10;;;25.90;93.80;;;;;;5007839;28;20465;-74
2022/09/12 13:05:18;;;;;;;1.67;0.90;;;25.60;93.40;;;;;;5006632;28;21042;-73
2022/09/12 13:07:44;;;;;;;0.63;0.60;;;25.50;93.50;;;;;;4993065;28;20505;-74
2022/09/12 13:10:22;;;;;;;1.00;1.00;;;25.50;93.70;;;;;;5006903;28;20473;-75
2022/09/12 13:12:50;;;;;;;1.17;1.07;;;25.40;95.90;;;;;;5012300;28;20438;-73
2022/09/12 13:15:46;;;;;;;1.10;1.00;;;25.50;94.90;;;;;;5010883;28;20409;-73
2022/09/12 13:18:43;;;;;;;2.10;1.07;;;25.40;94.70;;;;;;5006084;28;20445;-73
2022/09/12 13:21:13;;;;;;;3.47;0.83;;;25.30;95.20;;;;;;5004673;28;20793;-74
2022/09/12 13:23:40;;;;;;;1.00;1.00;;;25.40;94.30;;;;;;5011862;28;20866;-74
2022/09/12 13:26:33;;;;;;;0.87;0.87;;;25.40;94.30;;;;;;5010516;28;20465;-74
2022/09/12 13:29:14;;;;;;;0.80;0.80;;;25.40;94.70;;;;;;5010984;28;20479;-73
2022/09/12 13:31:41;;;;;;;1.23;1.00;;;25.40;95.40;;;;;;5007419;28;20524;-74
2022/09/12 13:34:09;;;;;;;3.90;0.90;;;25.40;95.50;;;;;;5008487;28;20437;-73
2022/09/12 13:37:11;;;;;;;1.27;1.00;;;25.40;94.90;;;;;;5006869;28;20437;-74
2022/09/12 13:39:57;;;;;;;3.90;0.90;;;25.40;95.10;;;;;;5011720;28;20475;-73
2022/09/12 13:42:38;;;;;;;0.97;0.97;;;25.40;96.40;;;;;;5011880;28;20781;-73
2022/09/12 13:45:17;;;;;;;0.93;0.93;;;25.30;95.60;;;;;;5011132;28;20449;-73
2022/09/12 13:47:44;;;;;;;0.73;0.73;;;25.30;95.60;;;;;;5009209;28;20806;-73
2022/09/12 13:50:30;;;;;;;1.33;0.97;;;25.30;95.40;;;;;;5007737;28;20448;-74
2022/09/12 13:53:05;;;;;;;1.10;1.00;;;25.20;96.90;;;;;;4992174;28;20430;-73
2022/09/12 13:55:33;;;;;;;1.40;1.23;;;25.30;94.90;;;;;;4995528;28;20440;-74
2022/09/12 13:58:23;;;;;;;0.80;0.80;;;25.20;94.70;;;;;;5009524;28;20449;-74
2022/09/12 14:01:03;;;;;;;0.80;0.80;;;25.20;94.90;;;;;;5009509;28;20437;-73
2022/09/12 14:06:23;;;;;;;1.20;0.70;;;25.30;94.10;;;;;;5005498;28;20706;-74
2022/09/12 14:08:50;;;;;;;0.90;0.90;;;25.20;94.00;;;;;;5011718;28;20424;-73
2022/09/12 14:11:26;;;;;;;1.10;0.93;;;25.20;94.70;;;;;;5011114;28;20433;-74
2022/09/12 14:13:54;;;;;;;0.70;0.70;;;25.00;94.90;;;;;;5011780;28;20410;-73
2022/09/12 14:16:22;;;;;;;0.90;0.90;;;24.90;95.10;;;;;;5010079;28;20453;-74
2022/09/12 14:18:49;;;;;;;1.33;0.90;;;25.00;95.00;;;;;;5009769;28;20445;-74
2022/09/12 14:21:29;;;;;;;1.00;0.87;;;24.90;95.60;;;;;;5007478;28;20957;-74
2022/09/12 14:23:56;;;;;;;1.17;1.00;;;24.90;94.70;;;;;;5010916;28;21047;-73
2022/09/12 14:26:23;;;;;;;0.70;0.70;;;24.90;95.20;;;;;;5010842;28;20457;-74
2022/09/12 14:28:49;;;;;;;0.93;0.93;;;24.90;95.20;;;;;;5007482;28;20483;-74
2022/09/12 14:31:32;;;;;;;0.80;0.80;;;24.90;95.20;;;;;;5010823;28;20441;-74
2022/09/12 14:34:14;;;;;;;1.10;0.70;;;24.90;95.00;;;;;;5007223;28;20531;-74
2022/09/12 14:36:46;;;;;;;0.70;0.70;;;24.90;94.50;;;;;;5005217;28;20478;-74
2022/09/12 14:39:21;;;;;;;1.87;1.10;;;24.80;94.50;;;;;;5009200;28;20425;-74
2022/09/12 14:41:48;;;;;;;0.90;0.80;;;24.80;94.50;;;;;;5009972;28;20927;-74